Avon Heights, Pennsylvania
Current Conditions -  °F | °C
As of 6:58 AM on Saturday 25 Oct 2014 (Local Time) from KMUI Reporting Station
Clear Clear  
Wind Chill: 51°   Ceiling: Unl
Heat Index: 51°   Visibility: 10mi
Dew Point: 41°   Wind: 2mph
Humidity: 68%   Direction: 230°SW
Pressure: 29.92"   Gusts: NA
Location:  40.2957°N, 76.4189°W
Report Text: KMUI 251058Z AUTO 23002KT 10SM CLR 11/05 A2992 RMK AO2 SLP135 T01050049 $
Loading
Personal Weather Stations






























Interactive Weather Map
Tropical Storm Tracking
New forecast layout! Learn more

10-Day Weather Forecast

Advertisements
Track Severe Weather on mobile